Terminal Aerodrome Forecast
Issued by NWS Sterling, VA

Current Version | Previous Version | Graphics & Text | Print | Product List | Glossary On
Versions: 1 2 3 4 5 6 7 8 9 10 11 12 13 14 15 16
000
FTUS41 KLWX 142339
TAFMRB
TAF
KMRB 142339Z 1500/1524 VRB03KT P6SM BKN045
     FM150500 VRB03KT P6SM SCT045 SCT250
     FM151900 14005KT P6SM BKN035 BKN200
     FM152200 14005KT P6SM BKN025 OVC050=

USA.gov is the U.S. government's official web portal to all federal, state and local government web resources and services.